Time;durP1;ratioP1;P1;durP2;ratioP2;P2;SDS_P1;SDS_P2;PMS_P1;PMS_P2;Temp;Humidity;BMP_temperature;BMP_pressure;BME280_temperature;BME280_humidity;BME280_pressure;Samples;Min_cycle;Max_cycle;Signal;HPM_P1;HPM_P2
2023/03/26 00:00:47;;;;;;;4.95;4.20;;;;;;;7.57;100.00;100208.38;6118390;23;20029;-74
2023/03/26 00:03:16;;;;;;;4.30;4.10;;;;;;;7.96;100.00;100283.16;6150630;23;20043;-75
2023/03/26 00:05:43;;;;;;;4.55;4.25;;;;;;;8.11;100.00;100319.94;6142333;23;20090;-75
2023/03/26 00:08:11;;;;;;;12.15;4.57;;;;;;;7.49;100.00;100213.13;6149732;23;20020;-77
2023/03/26 00:10:39;;;;;;;4.40;4.05;;;;;;;8.27;100.00;100333.09;6141559;23;20062;-76
2023/03/26 00:13:06;;;;;;;4.30;4.10;;;;;;;7.48;100.00;100236.72;6121461;23;20040;-75
2023/03/26 00:15:34;;;;;;;10.50;4.35;;;;;;;8.27;100.00;100349.63;6141745;23;20059;-76
2023/03/26 00:18:01;;;;;;;5.07;4.72;;;;;;;7.57;100.00;100231.03;6105987;23;20029;-76
2023/03/26 00:20:31;;;;;;;7.47;4.68;;;;;;;8.24;100.00;100357.63;6119214;23;20032;-76
2023/03/26 00:23:00;;;;;;;4.57;4.05;;;;;;;8.22;100.00;100342.91;6139078;23;20102;-75
2023/03/26 00:25:27;;;;;;;9.10;3.78;;;;;;;7.89;100.00;100296.59;6117570;23;20055;-76
2023/03/26 00:27:53;;;;;;;10.05;5.55;;;;;;;7.90;100.00;100293.06;6152634;23;20668;-75
2023/03/26 00:30:20;;;;;;;8.25;4.97;;;;;;;8.31;100.00;100340.72;6092119;23;20601;-76
2023/03/26 00:32:46;;;;;;;5.00;4.68;;;;;;;7.71;100.00;100249.50;6141401;23;20587;-76
2023/03/26 00:35:19;;;;;;;4.45;4.22;;;;;;;7.74;100.00;100267.66;6109276;23;20049;-75
2023/03/26 00:37:46;;;;;;;6.70;4.88;;;;;;;8.33;100.00;100343.25;6116063;23;20088;-76
2023/03/26 00:40:13;;;;;;;9.07;4.53;;;;;;;8.23;100.00;100334.19;6154191;23;20621;-75
2023/03/26 00:42:41;;;;;;;4.15;3.83;;;;;;;8.31;100.00;100339.88;6120827;23;20029;-76
2023/03/26 00:45:08;;;;;;;6.82;4.85;;;;;;;8.18;100.00;100310.88;6120584;23;20101;-75
2023/03/26 00:47:38;;;;;;;9.23;5.03;;;;;;;8.28;100.00;100327.81;6138582;23;20047;-76
2023/03/26 00:50:06;;;;;;;4.50;4.22;;;;;;;8.15;100.00;100316.25;6147525;23;20037;-76
2023/03/26 00:52:34;;;;;;;9.77;4.18;;;;;;;7.68;100.00;100252.28;6141364;23;20036;-76
2023/03/26 00:55:01;;;;;;;7.80;4.47;;;;;;;7.84;100.00;100291.59;6127283;23;20021;-76
2023/03/26 00:57:28;;;;;;;9.00;4.38;;;;;;;7.84;100.00;100296.81;6140164;23;20025;-75
2023/03/26 01:00:11;;;;;;;24.27;4.75;;;;;;;7.85;100.00;100301.09;6148953;23;20153;-75
2023/03/26 01:02:38;;;;;;;5.32;4.90;;;;;;;7.45;100.00;100257.72;6141337;23;20635;-75
2023/03/26 01:05:35;;;;;;;12.05;3.85;;;;;;;7.67;100.00;100307.19;6112929;23;20542;-76
2023/03/26 01:08:14;;;;;;;4.43;4.13;;;;;;;7.68;100.00;100307.13;6115470;23;20036;-76
2023/03/26 01:10:41;;;;;;;10.30;4.30;;;;;;;7.25;100.00;100253.41;6091183;23;20052;-75
2023/03/26 01:13:08;;;;;;;11.18;4.38;;;;;;;6.52;100.00;100112.38;6142234;23;20493;-75
2023/03/26 01:15:37;;;;;;;5.60;4.40;;;;;;;7.39;100.00;100282.34;6113542;23;20590;-77
2023/03/26 01:18:08;;;;;;;12.20;4.10;;;;;;;7.11;100.00;100236.63;6149640;23;20088;-75
2023/03/26 01:20:45;;;;;;;5.97;3.75;;;;;;;7.48;100.00;100281.94;6139000;23;20506;-74
2023/03/26 01:23:18;;;;;;;14.30;4.47;;;;;;;7.31;100.00;100260.97;6082812;23;20094;-74
2023/03/26 01:25:56;;;;;;;11.55;5.03;;;;;;;7.33;100.00;100272.19;6138239;23;20454;-74
2023/03/26 01:28:27;;;;;;;8.52;4.07;;;;;;;7.21;100.00;100296.22;6115383;23;20396;-75
2023/03/26 01:31:05;;;;;;;9.55;4.57;;;;;;;6.52;100.00;100172.34;6109867;23;20495;-76
2023/03/26 01:33:44;;;;;;;6.90;4.47;;;;;;;6.78;100.00;100234.59;6148165;23;20546;-76
2023/03/26 01:36:24;;;;;;;6.88;4.82;;;;;;;6.85;100.00;100250.81;6137720;23;20029;-77
2023/03/26 01:39:37;;;;;;;5.30;4.90;;;;;;;6.43;100.00;100198.78;6120776;23;20499;-76
2023/03/26 01:42:14;;;;;;;4.78;4.10;;;;;;;6.68;100.00;100242.91;6019304;23;20099;-76
2023/03/26 01:44:55;;;;;;;13.65;4.53;;;;;;;5.31;100.00;100028.09;6019362;23;20076;-76
2023/03/26 01:47:22;;;;;;;4.55;4.25;;;;;;;6.21;100.00;100180.63;6105315;23;20358;-75
2023/03/26 01:49:48;;;;;;;11.30;4.38;;;;;;;5.84;100.00;100109.22;6134891;23;20092;-76
2023/03/26 01:52:21;;;;;;;10.20;3.78;;;;;;;6.06;100.00;100169.94;6119719;23;20238;-75
2023/03/26 01:54:48;;;;;;;4.22;3.85;;;;;;;6.15;100.00;100166.94;6139617;23;20039;-77
2023/03/26 01:57:36;;;;;;;5.10;3.70;;;;;;;6.18;100.00;100179.00;6145059;23;20099;-76
2023/03/26 02:00:10;;;;;;;9.27;5.30;;;;;;;6.45;100.00;100212.59;6134379;23;20475;-75
2023/03/26 02:03:07;;;;;;;12.68;4.30;;;;;;;6.42;100.00;100215.34;6116687;23;20025;-74
2023/03/26 02:05:55;;;;;;;3.90;3.60;;;;;;;6.18;100.00;100176.38;6137424;23;20506;-76
2023/03/26 02:08:34;;;;;;;4.32;4.03;;;;;;;6.25;100.00;100184.78;6107383;23;20198;-76
2023/03/26 02:11:09;;;;;;;4.07;3.70;;;;;;;6.46;100.00;100206.50;6146796;23;20075;-75
2023/03/26 02:13:42;;;;;;;4.32;3.92;;;;;;;6.43;100.00;100206.59;6111935;23;20290;-74
2023/03/26 02:16:15;;;;;;;4.00;3.45;;;;;;;5.89;100.00;100123.72;6138939;23;20029;-76
2023/03/26 02:18:44;;;;;;;7.95;4.20;;;;;;;6.48;100.00;100197.69;6123596;23;20525;-76
2023/03/26 02:21:14;;;;;;;3.80;3.60;;;;;;;6.51;100.00;100192.31;6108875;23;20091;-75
2023/03/26 02:23:45;;;;;;;5.18;4.13;;;;;;;6.54;100.00;100186.16;6133422;23;20028;-76
2023/03/26 02:26:15;;;;;;;16.13;4.53;;;;;;;6.09;100.00;100091.63;6140765;23;20039;-73
2023/03/26 02:28:41;;;;;;;3.90;3.70;;;;;;;5.46;100.00;99979.75;6146176;23;20286;-75
2023/03/26 02:31:12;;;;;;;7.60;4.10;;;;;;;6.59;100.00;100168.53;6111459;23;20029;-76
2023/03/26 02:33:39;;;;;;;4.35;4.10;;;;;;;6.26;100.00;100114.38;6151100;23;20063;-75
2023/03/26 02:36:07;;;;;;;3.95;3.65;;;;;;;6.43;100.00;100139.69;6112897;23;20831;-75
2023/03/26 02:38:34;;;;;;;5.07;3.88;;;;;;;6.54;100.00;100163.53;6138907;23;20024;-76
2023/03/26 02:41:01;;;;;;;8.63;4.10;;;;;;;5.91;100.00;100046.41;6122680;23;20563;-75
2023/03/26 02:43:28;;;;;;;6.30;4.55;;;;;;;6.10;100.00;100066.47;6106321;23;20195;-76
2023/03/26 02:45:55;;;;;;;10.57;4.18;;;;;;;6.12;100.00;100078.50;6142691;23;20089;-76
2023/03/26 02:48:22;;;;;;;8.98;5.03;;;;;;;6.28;100.00;100070.84;6134238;23;20556;-77
2023/03/26 02:50:53;;;;;;;3.80;3.60;;;;;;;6.74;100.00;100136.56;6106489;23;20013;-75
2023/03/26 02:53:22;;;;;;;7.43;4.70;;;;;;;6.78;100.00;100119.84;6113875;23;20028;-74
2023/03/26 02:55:49;;;;;;;4.00;3.75;;;;;;;6.29;100.00;100043.03;6145256;23;20471;-77
2023/03/26 02:58:16;;;;;;;7.78;5.00;;;;;;;6.12;100.00;100002.09;6137887;23;20403;-76
2023/03/26 03:00:45;;;;;;;4.47;4.00;;;;;;;6.86;100.00;100113.47;6145185;23;20044;-74
2023/03/26 03:03:12;;;;;;;5.43;4.93;;;;;;;6.57;100.00;100058.25;6113829;23;20340;-76
2023/03/26 03:05:41;;;;;;;8.43;4.25;;;;;;;6.71;100.00;100081.94;6142830;23;20033;-76
2023/03/26 03:08:09;;;;;;;11.82;4.50;;;;;;;6.78;100.00;100082.50;6104983;23;20444;-77
2023/03/26 03:10:36;;;;;;;16.23;3.97;;;;;;;6.97;100.00;100108.56;6150860;23;20451;-76
2023/03/26 03:13:06;;;;;;;5.10;4.80;;;;;;;6.47;100.00;100017.88;6110382;23;20135;-75
2023/03/26 03:15:33;;;;;;;3.80;3.60;;;;;;;6.98;100.00;100094.63;6144959;23;20032;-76
2023/03/26 03:18:00;;;;;;;9.07;4.32;;;;;;;7.01;100.00;100097.06;6132394;23;20476;-76
2023/03/26 03:20:29;;;;;;;5.30;4.80;;;;;;;6.92;100.00;100077.50;6148262;23;20058;-76
2023/03/26 03:22:55;;;;;;;4.55;4.22;;;;;;;6.67;100.00;100038.66;6137593;23;20163;-74
2023/03/26 03:25:22;;;;;;;4.07;3.88;;;;;;;6.78;100.00;100035.56;6084564;23;20053;-75
2023/03/26 03:27:49;;;;;;;4.85;4.43;;;;;;;6.54;100.00;100007.09;6142624;23;20066;-76
2023/03/26 03:30:15;;;;;;;5.55;4.38;;;;;;;6.61;100.00;100017.25;6138326;23;20108;-74
2023/03/26 03:32:42;;;;;;;3.60;3.50;;;;;;;6.34;100.00;99955.91;6090833;23;20018;-76
2023/03/26 03:35:09;;;;;;;7.07;4.72;;;;;;;6.54;100.00;99985.41;6122729;23;20082;-75
2023/03/26 03:37:35;;;;;;;4.00;3.80;;;;;;;6.55;100.00;99981.88;6137140;23;20041;-76
2023/03/26 03:40:06;;;;;;;6.45;4.40;;;;;;;7.19;100.00;100079.69;6154399;23;20140;-75
2023/03/26 03:42:32;;;;;;;20.70;4.35;;;;;;;7.08;100.00;100048.91;6136094;23;20025;-74
2023/03/26 03:44:59;;;;;;;4.82;4.50;;;;;;;5.97;100.00;99857.78;6106103;23;20061;-76
2023/03/26 03:47:25;;;;;;;9.13;4.60;;;;;;;6.69;100.00;99973.41;6126043;23;20439;-76
2023/03/26 03:49:52;;;;;;;4.13;3.92;;;;;;;7.29;100.00;100057.44;6113442;23;20293;-74
2023/03/26 03:52:19;;;;;;;3.88;3.67;;;;;;;7.19;100.00;100041.38;6153553;23;20091;-76
2023/03/26 03:54:45;;;;;;;4.13;3.85;;;;;;;7.17;100.00;100050.22;6138762;23;20459;-76
2023/03/26 03:57:12;;;;;;;4.10;3.85;;;;;;;7.35;100.00;100057.16;6147875;23;20373;-75
2023/03/26 03:59:39;;;;;;;4.40;4.00;;;;;;;6.99;100.00;99994.56;6119408;23;20018;-76
2023/03/26 04:02:19;;;;;;;4.20;3.90;;;;;;;7.01;100.00;100004.91;6113626;23;20055;-75
2023/03/26 04:04:49;;;;;;;6.60;4.30;;;;;;;6.88;100.00;99968.16;6146365;23;20052;-75
2023/03/26 04:07:15;;;;;;;4.20;4.00;;;;;;;7.37;100.00;100044.84;6138376;23;20230;-76
2023/03/26 04:09:42;;;;;;;5.13;4.53;;;;;;;7.19;100.00;100009.22;6152504;23;20115;-76
2023/03/26 04:12:08;;;;;;;6.90;3.70;;;;;;;7.26;100.00;100021.06;6149520;23;20265;-76
2023/03/26 04:14:35;;;;;;;3.55;3.38;;;;;;;7.18;100.00;100010.16;6105346;23;20370;-77
2023/03/26 04:17:04;;;;;;;5.03;4.00;;;;;;;7.06;100.00;99982.91;6116037;23;20102;-76
2023/03/26 04:19:30;;;;;;;4.20;4.00;;;;;;;6.79;100.00;99940.75;6122685;23;20530;-76
2023/03/26 04:22:01;;;;;;;3.78;3.65;;;;;;;6.82;100.00;99952.81;6138990;23;20531;-76
2023/03/26 04:24:28;;;;;;;4.85;4.55;;;;;;;6.98;100.00;99959.81;6127791;23;20029;-76
2023/03/26 04:26:57;;;;;;;3.60;3.50;;;;;;;6.95;100.00;99959.94;6114862;23;20022;-76
2023/03/26 04:29:26;;;;;;;4.78;4.35;;;;;;;7.24;100.00;100007.25;6140056;23;20028;-76
2023/03/26 04:32:05;;;;;;;6.85;4.38;;;;;;;7.24;100.00;100006.41;6143720;23;20183;-77
2023/03/26 04:34:33;;;;;;;4.25;4.05;;;;;;;6.17;100.00;99834.25;6138782;23;20022;-75
2023/03/26 04:37:02;;;;;;;3.92;3.72;;;;;;;6.26;100.00;99839.94;6138989;23;20459;-76
2023/03/26 04:39:29;;;;;;;6.35;4.07;;;;;;;6.35;100.00;99866.41;6138440;23;20648;-77
2023/03/26 04:41:56;;;;;;;4.32;4.13;;;;;;;7.16;100.00;99973.72;6109873;23;20021;-76
2023/03/26 04:44:23;;;;;;;4.03;3.72;;;;;;;6.46;100.00;99871.09;6139358;23;20354;-76
2023/03/26 04:46:51;;;;;;;5.60;3.88;;;;;;;7.11;100.00;99970.47;6123680;23;20017;-76
2023/03/26 04:49:19;;;;;;;4.10;3.90;;;;;;;6.78;100.00;99923.44;6117824;23;20550;-74
2023/03/26 04:51:46;;;;;;;10.63;4.55;;;;;;;6.84;100.00;99930.13;6152249;23;20366;-77
2023/03/26 04:54:15;;;;;;;5.47;4.00;;;;;;;7.07;100.00;99974.16;6139581;23;20028;-76
2023/03/26 04:56:58;;;;;;;4.50;4.30;;;;;;;6.35;100.00;99862.94;6086211;23;20148;-77
2023/03/26 04:59:28;;;;;;;5.53;4.35;;;;;;;7.04;100.00;99969.09;6146578;23;20028;-76
2023/03/26 05:01:56;;;;;;;4.85;3.92;;;;;;;7.02;100.00;99951.84;6138144;23;20244;-77
2023/03/26 05:04:28;;;;;;;4.10;3.90;;;;;;;6.84;100.00;99935.34;6125818;23;20129;-76
2023/03/26 05:06:59;;;;;;;4.00;3.78;;;;;;;6.98;100.00;99948.53;6138278;23;20177;-76
2023/03/26 05:09:26;;;;;;;4.05;3.85;;;;;;;6.97;100.00;99947.66;6150221;23;20429;-76
2023/03/26 05:11:53;;;;;;;3.88;3.67;;;;;;;5.90;100.00;99786.06;6138778;23;20021;-76
2023/03/26 05:14:19;;;;;;;5.28;4.47;;;;;;;6.55;100.00;99883.66;6113071;23;20074;-76
2023/03/26 05:16:49;;;;;;;4.78;3.70;;;;;;;6.85;100.00;99916.97;6140050;23;20032;-75
2023/03/26 05:19:15;;;;;;;9.30;4.30;;;;;;;6.83;100.00;99931.84;6109819;23;20616;-76
2023/03/26 05:21:41;;;;;;;4.30;4.07;;;;;;;6.26;100.00;99824.31;6112653;23;20025;-76
2023/03/26 05:24:08;;;;;;;3.83;3.70;;;;;;;6.48;100.00;99848.41;6142668;23;20090;-75
2023/03/26 05:26:35;;;;;;;4.10;3.83;;;;;;;6.15;100.00;99777.91;6119674;23;20309;-76
2023/03/26 05:29:03;;;;;;;4.30;4.10;;;;;;;6.93;100.00;99899.19;6139661;23;20009;-76
2023/03/26 05:31:33;;;;;;;5.72;4.40;;;;;;;6.95;100.00;99899.09;6128577;23;20033;-77
2023/03/26 05:33:59;;;;;;;4.50;3.97;;;;;;;7.13;100.00;99920.81;6111979;23;21201;-72
2023/03/26 05:36:29;;;;;;;4.10;3.90;;;;;;;6.82;100.00;99872.81;6113713;23;20122;-73
2023/03/26 05:38:56;;;;;;;3.95;3.75;;;;;;;6.00;100.00;99727.44;6138344;23;20036;-73
2023/03/26 05:41:22;;;;;;;4.15;3.95;;;;;;;7.18;100.00;99914.47;6125251;23;20346;-72
2023/03/26 05:43:50;;;;;;;4.40;4.20;;;;;;;7.19;100.00;99900.47;6139257;23;20017;-71
2023/03/26 05:46:16;;;;;;;4.80;4.28;;;;;;;7.06;100.00;99872.50;6127204;23;20001;-73
2023/03/26 05:48:43;;;;;;;4.75;4.30;;;;;;;6.80;100.00;99832.94;6140307;23;21173;-72
2023/03/26 05:51:11;;;;;;;10.82;4.93;;;;;;;6.53;100.00;99785.59;6152803;23;20101;-72
2023/03/26 05:53:37;;;;;;;4.85;3.90;;;;;;;6.60;100.00;99784.38;6138176;23;20492;-73
2023/03/26 05:56:04;;;;;;;9.48;4.82;;;;;;;7.25;100.00;99882.81;6127330;23;20021;-73
2023/03/26 05:58:33;;;;;;;3.90;3.70;;;;;;;7.26;100.00;99885.38;6114542;23;20284;-72
2023/03/26 06:01:04;;;;;;;4.93;4.53;;;;;;;6.12;100.00;99702.53;6145373;23;20511;-72
2023/03/26 06:03:32;;;;;;;4.40;4.15;;;;;;;7.18;100.00;99866.66;6135612;23;20220;-72
2023/03/26 06:05:59;;;;;;;9.63;4.22;;;;;;;7.19;100.00;99869.16;6144795;23;20545;-72
2023/03/26 06:08:25;;;;;;;4.88;4.57;;;;;;;7.21;100.00;99866.47;6140797;23;20045;-72
2023/03/26 06:11:04;;;;;;;3.83;3.63;;;;;;;6.68;100.00;99773.56;6116346;23;20032;-71
2023/03/26 06:13:30;;;;;;;4.25;3.97;;;;;;;6.62;100.00;99774.72;6135674;23;20036;-72
2023/03/26 06:15:57;;;;;;;8.48;4.05;;;;;;;6.79;100.00;99811.22;6148129;23;20025;-72
2023/03/26 06:18:24;;;;;;;3.83;3.53;;;;;;;6.94;100.00;99830.47;6139970;23;20142;-73
2023/03/26 06:20:52;;;;;;;4.40;4.10;;;;;;;7.00;100.00;99834.53;6104413;23;20590;-72
2023/03/26 06:23:24;;;;;;;3.88;3.67;;;;;;;6.73;100.00;99798.47;6140866;23;20021;-73
2023/03/26 06:25:50;;;;;;;4.10;3.85;;;;;;;6.63;100.00;99763.38;6147306;23;20094;-72
2023/03/26 06:28:17;;;;;;;4.55;4.15;;;;;;;6.98;100.00;99810.28;6139118;23;20037;-72
2023/03/26 06:30:44;;;;;;;3.72;3.58;;;;;;;6.92;100.00;99808.00;6127346;23;20498;-72
2023/03/26 06:33:10;;;;;;;5.00;4.50;;;;;;;6.86;100.00;99805.69;6112444;23;20456;-71
2023/03/26 06:35:37;;;;;;;3.97;3.78;;;;;;;6.67;100.00;99764.88;6142303;23;20147;-71
2023/03/26 06:38:04;;;;;;;4.80;4.40;;;;;;;6.95;100.00;99789.56;6151316;23;20455;-73
2023/03/26 06:40:31;;;;;;;6.35;4.60;;;;;;;6.92;100.00;99787.97;6134424;23;20028;-72
2023/03/26 06:42:59;;;;;;;4.82;3.65;;;;;;;6.69;100.00;99754.38;6149813;23;20027;-72
2023/03/26 06:45:35;;;;;;;4.35;4.13;;;;;;;6.70;100.00;99749.09;6139211;23;20376;-72
2023/03/26 06:48:01;;;;;;;4.18;3.95;;;;;;;7.06;100.00;99813.34;6148095;23;20028;-72
2023/03/26 06:50:28;;;;;;;4.70;4.40;;;;;;;7.00;100.00;99777.13;6137193;23;20027;-72
2023/03/26 06:52:55;;;;;;;8.73;4.55;;;;;;;7.04;100.00;99780.44;6145747;23;20388;-71
2023/03/26 06:55:23;;;;;;;8.90;4.93;;;;;;;7.26;100.00;99806.25;6138523;23;20317;-72
2023/03/26 06:57:51;;;;;;;4.65;3.80;;;;;;;7.31;100.00;99806.81;6154271;23;20571;-72
2023/03/26 07:00:18;;;;;;;7.22;4.95;;;;;;;7.36;100.00;99810.03;6138967;23;20062;-72
2023/03/26 07:02:45;;;;;;;4.10;3.88;;;;;;;6.87;100.00;99714.31;6149437;23;20024;-73
2023/03/26 07:05:14;;;;;;;3.95;3.70;;;;;;;7.44;100.00;99793.94;6137430;23;20033;-72
2023/03/26 07:07:41;;;;;;;4.03;3.78;;;;;;;6.76;100.00;99687.97;6123714;23;20040;-73
2023/03/26 07:10:13;;;;;;;5.38;4.15;;;;;;;7.41;100.00;99781.06;6086136;23;20076;-73
2023/03/26 07:12:41;;;;;;;3.97;3.78;;;;;;;7.36;100.00;99781.34;6124190;23;20024;-73
2023/03/26 07:15:09;;;;;;;4.30;4.10;;;;;;;6.78;100.00;99673.94;6138789;23;20025;-72
2023/03/26 07:17:38;;;;;;;5.32;3.97;;;;;;;7.34;100.00;99763.13;6147933;23;20067;-73
2023/03/26 07:20:06;;;;;;;4.18;3.97;;;;;;;7.34;100.00;99762.31;6136750;23;20053;-73
2023/03/26 07:22:34;;;;;;;4.10;3.85;;;;;;;7.32;100.00;99759.75;6127863;23;20046;-72
2023/03/26 07:25:01;;;;;;;4.47;4.28;;;;;;;7.07;100.00;99715.03;6114167;23;20041;-71
2023/03/26 07:27:33;;;;;;;3.95;3.75;;;;;;;6.17;100.00;99536.41;6154690;23;20044;-72
2023/03/26 07:30:05;;;;;;;4.45;4.15;;;;;;;7.38;100.00;99746.38;6144782;23;20033;-72
2023/03/26 07:32:57;;;;;;;4.88;4.57;;;;;;;7.42;100.00;99744.47;6113905;23;20460;-72
2023/03/26 07:35:31;;;;;;;8.70;4.50;;;;;;;7.46;100.00;99750.34;6154978;23;20157;-72
2023/03/26 07:38:07;;;;;;;3.92;3.72;;;;;;;7.52;100.00;99743.03;6135141;23;20029;-72
2023/03/26 07:40:45;;;;;;;4.00;3.80;;;;;;;7.41;100.00;99727.09;6147618;23;20017;-71
2023/03/26 07:43:45;;;;;;;4.22;3.97;;;;;;;7.58;100.00;99740.06;6141362;23;20111;-72
2023/03/26 07:46:13;;;;;;;4.00;3.65;;;;;;;7.61;100.00;99738.22;6149721;23;20041;-72
2023/03/26 07:48:42;;;;;;;4.00;3.80;;;;;;;7.56;100.00;99734.09;6145529;23;20087;-72
2023/03/26 07:51:10;;;;;;;10.18;4.60;;;;;;;7.21;100.00;99685.59;6104613;23;20112;-71
2023/03/26 07:53:36;;;;;;;4.30;4.10;;;;;;;6.89;100.00;99620.34;6143191;23;20085;-73
2023/03/26 07:56:16;;;;;;;4.85;4.40;;;;;;;7.57;100.00;99727.09;6112799;23;20037;-72
2023/03/26 07:58:52;;;;;;;4.50;4.28;;;;;;;7.50;100.00;99718.78;6141115;23;20021;-72
2023/03/26 08:01:55;;;;;;;4.95;4.43;;;;;;;7.56;100.00;99720.22;6148446;23;20029;-72
2023/03/26 08:04:33;;;;;;;10.85;5.45;;;;;;;7.53;100.00;99720.34;6137383;23;20360;-73
2023/03/26 08:07:43;;;;;;;7.57;4.20;;;;;;;7.54;100.00;99714.22;6116007;23;20097;-72
2023/03/26 08:10:42;;;;;;;3.90;3.70;;;;;;;7.13;100.00;99652.91;6139017;23;20207;-72
2023/03/26 08:13:36;;;;;;;3.80;3.60;;;;;;;7.08;100.00;99646.28;6111980;23;20025;-73
2023/03/26 08:16:16;;;;;;;4.13;3.92;;;;;;;7.21;100.00;99677.75;6116479;23;20045;-72
2023/03/26 08:18:55;;;;;;;3.40;3.30;;;;;;;7.41;100.00;99708.81;6113129;23;20029;-72
2023/03/26 08:21:38;;;;;;;5.30;3.95;;;;;;;7.23;100.00;99678.53;6140957;23;20031;-71
2023/03/26 08:24:11;;;;;;;6.45;4.47;;;;;;;7.44;100.00;99706.06;6146654;23;20109;-72
2023/03/26 08:26:57;;;;;;;11.90;4.88;;;;;;;7.43;100.00;99706.97;6142481;23;20556;-71
2023/03/26 08:29:38;;;;;;;8.10;5.75;;;;;;;7.17;100.00;99672.69;6123504;23;20088;-72
2023/03/26 08:32:12;;;;;;;5.07;4.70;;;;;;;7.44;100.00;99702.56;6139592;23;20094;-72
2023/03/26 08:34:39;;;;;;;4.13;3.92;;;;;;;7.47;100.00;99703.25;6151101;23;20021;-72
2023/03/26 08:37:06;;;;;;;4.45;4.15;;;;;;;7.52;100.00;99700.41;6140591;23;20528;-72
2023/03/26 08:39:32;;;;;;;6.22;4.68;;;;;;;7.31;100.00;99668.50;6147379;23;20054;-72
2023/03/26 08:42:20;;;;;;;5.50;5.13;;;;;;;7.46;100.00;99703.38;6113534;23;20468;-70
2023/03/26 08:45:07;;;;;;;16.60;4.00;;;;;;;7.42;100.00;99702.69;6138616;23;20099;-72
2023/03/26 08:48:00;;;;;;;4.50;4.25;;;;;;;7.49;100.00;99693.56;6145616;23;20155;-72
2023/03/26 08:50:45;;;;;;;;;;;;;;;7.52;100.00;99682.97;6112981;23;20037;-71
2023/03/26 08:53:40;;;;;;;4.50;3.92;;;;;;;7.50;100.00;99695.28;6140383;23;19939;-71
2023/03/26 08:56:31;;;;;;;4.47;4.28;;;;;;;7.43;100.00;99693.91;6112313;23;20467;-72
2023/03/26 08:59:23;;;;;;;4.30;4.05;;;;;;;7.42;100.00;99687.03;6116687;23;20053;-71
2023/03/26 09:02:17;;;;;;;4.68;4.47;;;;;;;7.44;100.00;99690.41;6147011;23;20108;-72
2023/03/26 09:05:14;;;;;;;4.90;3.78;;;;;;;7.43;100.00;99683.47;6140714;23;20181;-73
2023/03/26 09:07:55;;;;;;;3.90;3.70;;;;;;;7.03;100.00;99661.34;6147672;23;20037;-73
2023/03/26 09:10:50;;;;;;;3.40;3.30;;;;;;;7.33;100.00;99684.91;6114262;23;20475;-70
2023/03/26 09:13:39;;;;;;;3.97;3.78;;;;;;;7.30;100.00;99698.97;6113937;23;20432;-70
2023/03/26 09:16:44;;;;;;;4.07;3.88;;;;;;;7.20;100.00;99674.31;6141275;23;20388;-70
2023/03/26 09:19:39;;;;;;;4.95;4.50;;;;;;;6.72;100.00;99596.03;6110133;23;20082;-71
2023/03/26 09:22:16;;;;;;;6.18;4.45;;;;;;;7.20;100.00;99674.31;6139735;23;20036;-70
2023/03/26 09:25:00;;;;;;;3.85;3.53;;;;;;;7.10;100.00;99658.31;6139564;23;20454;-71
2023/03/26 09:27:44;;;;;;;4.35;4.05;;;;;;;6.84;100.00;99606.75;6121055;23;20094;-70
2023/03/26 09:30:33;;;;;;;4.60;4.30;;;;;;;7.21;100.00;99660.31;6138928;23;20361;-72
2023/03/26 09:33:06;;;;;;;4.80;4.43;;;;;;;7.24;100.00;99651.50;6116671;23;20105;-72
2023/03/26 09:36:05;;;;;;;4.15;3.95;;;;;;;7.31;100.00;99647.63;6088125;23;20017;-72
2023/03/26 09:38:31;;;;;;;3.72;3.55;;;;;;;7.38;100.00;99651.59;6141685;23;20638;-72
2023/03/26 09:41:12;;;;;;;6.35;4.28;;;;;;;7.38;100.00;99644.59;6130624;23;20173;-71
2023/03/26 09:44:24;;;;;;;3.60;3.50;;;;;;;7.33;100.00;99641.38;6120163;23;20032;-72
2023/03/26 09:47:20;;;;;;;3.80;3.60;;;;;;;7.26;100.00;99632.22;6025326;23;20010;-72
2023/03/26 09:50:11;;;;;;;3.78;3.58;;;;;;;7.17;100.00;99623.13;6073747;23;20057;-72
2023/03/26 09:53:15;;;;;;;7.90;4.00;;;;;;;7.30;100.00;99619.84;6078984;23;20042;-71
2023/03/26 09:56:19;;;;;;;3.90;3.70;;;;;;;7.15;100.00;99611.94;6110291;23;20686;-72
2023/03/26 09:58:56;;;;;;;4.45;4.20;;;;;;;7.14;100.00;99610.25;6138084;23;20181;-72
2023/03/26 10:01:46;;;;;;;4.10;3.80;;;;;;;7.27;100.00;99612.19;6139658;23;20023;-73
2023/03/26 10:04:26;;;;;;;3.80;3.60;;;;;;;7.28;100.00;99606.88;6111486;23;20016;-72
2023/03/26 10:07:07;;;;;;;3.70;3.60;;;;;;;6.73;100.00;99519.47;6139154;23;20025;-71
2023/03/26 10:10:12;;;;;;;4.38;4.07;;;;;;;7.14;100.00;99572.91;6085625;23;20029;-71
2023/03/26 10:12:43;;;;;;;4.25;3.95;;;;;;;7.06;100.00;99535.97;6141535;23;20031;-71
2023/03/26 10:15:23;;;;;;;4.00;3.80;;;;;;;7.44;100.00;99604.25;6110056;23;20463;-72
2023/03/26 10:18:04;;;;;;;3.72;3.53;;;;;;;7.46;100.00;99606.78;6140720;23;20074;-72
2023/03/26 10:20:54;;;;;;;3.35;3.25;;;;;;;7.45;100.00;99597.25;6147092;23;20048;-71
2023/03/26 10:23:59;;;;;;;4.13;3.92;;;;;;;7.58;100.00;99595.63;6138171;23;20084;-72
2023/03/26 10:27:07;;;;;;;3.75;3.55;;;;;;;7.75;100.00;99598.09;6151301;23;20711;-71
2023/03/26 10:30:06;;;;;;;3.78;3.63;;;;;;;7.79;100.00;99590.91;6045004;23;20021;-72
2023/03/26 10:32:51;;;;;;;3.92;3.72;;;;;;;7.76;100.00;99598.94;6149106;23;20492;-71
2023/03/26 10:35:33;;;;;;;4.30;4.10;;;;;;;7.69;100.00;99590.63;6140129;23;20487;-71
2023/03/26 10:38:17;;;;;;;3.95;3.65;;;;;;;7.52;100.00;99586.38;6145504;23;20024;-71
2023/03/26 10:41:15;;;;;;;3.88;3.65;;;;;;;7.64;100.00;99586.56;6109043;23;20014;-71
2023/03/26 10:44:09;;;;;;;8.93;3.70;;;;;;;7.34;100.00;99571.78;6127738;23;20061;-71
2023/03/26 10:47:07;;;;;;;3.85;3.65;;;;;;;7.59;100.00;99585.06;6138922;23;20021;-71
2023/03/26 10:49:48;;;;;;;4.70;4.40;;;;;;;7.30;100.00;99562.44;6149318;23;20040;-71
2023/03/26 10:52:21;;;;;;;11.65;3.45;;;;;;;7.39;100.00;99588.00;6116118;23;20024;-71
2023/03/26 10:55:02;;;;;;;3.90;3.70;;;;;;;7.32;100.00;99582.28;6147853;23;20081;-72
2023/03/26 10:57:49;;;;;;;3.83;3.63;;;;;;;7.31;100.00;99587.59;6111086;23;20038;-71
2023/03/26 11:00:27;;;;;;;6.57;3.80;;;;;;;7.28;100.00;99580.78;6141866;23;20048;-71
2023/03/26 11:03:25;;;;;;;4.40;4.03;;;;;;;7.28;100.00;99596.44;6148505;23;20035;-70
2023/03/26 11:06:19;;;;;;;4.25;3.80;;;;;;;7.41;100.00;99593.13;6120384;23;20230;-71
2023/03/26 11:08:58;;;;;;;4.20;3.90;;;;;;;6.72;100.00;99483.09;6117157;23;20047;-72
2023/03/26 11:11:35;;;;;;;4.65;4.07;;;;;;;7.26;100.00;99587.03;6151141;23;20397;-72
2023/03/26 11:14:32;;;;;;;3.80;3.60;;;;;;;7.25;100.00;99593.16;6142302;23;20103;-71
2023/03/26 11:17:15;;;;;;;3.78;3.60;;;;;;;7.35;100.00;99583.88;6084712;23;20060;-72
2023/03/26 11:20:19;;;;;;;3.70;3.60;;;;;;;7.14;100.00;99549.41;6142130;23;20025;-72
2023/03/26 11:23:00;;;;;;;3.53;3.40;;;;;;;7.14;100.00;99565.06;6129607;23;20016;-71
2023/03/26 11:25:38;;;;;;;4.18;3.97;;;;;;;7.38;100.00;99570.66;6143794;23;20028;-71
2023/03/26 11:28:34;;;;;;;3.80;3.60;;;;;;;7.43;100.00;99579.06;6150170;23;20420;-70
2023/03/26 11:31:18;;;;;;;5.78;4.43;;;;;;;7.43;100.00;99571.22;6148372;23;20049;-71
2023/03/26 11:33:50;;;;;;;3.50;3.40;;;;;;;7.05;100.00;99495.97;6151617;23;20024;-71
2023/03/26 11:36:24;;;;;;;4.82;3.70;;;;;;;7.54;100.00;99574.06;6141975;23;20015;-72
2023/03/26 11:38:54;;;;;;;3.75;3.58;;;;;;;4.04;100.00;99023.13;6166794;23;20068;-72
2023/03/26 11:41:24;;;;;;;3.88;3.70;;;;;;;7.09;100.00;99522.72;6145839;23;19997;-72
2023/03/26 11:44:02;;;;;;;4.38;4.18;;;;;;;6.79;100.00;99464.41;6151173;23;20032;-72
2023/03/26 11:46:31;;;;;;;4.10;3.88;;;;;;;7.37;100.00;99550.69;6145798;23;20020;-70
2023/03/26 11:49:05;;;;;;;4.32;3.92;;;;;;;7.23;100.00;99514.13;6157418;23;20028;-71
2023/03/26 11:51:33;;;;;;;;;;;;;;;7.55;100.00;99573.13;6138673;23;20356;-71
2023/03/26 11:54:01;;;;;;;3.67;3.58;;;;;;;7.52;100.00;99562.06;6135927;23;19944;-72
2023/03/26 11:56:31;;;;;;;3.88;3.67;;;;;;;7.63;100.00;99566.63;6110916;23;20017;-72
2023/03/26 11:59:04;;;;;;;3.80;3.60;;;;;;;7.11;100.00;99490.41;6129491;23;20032;-71
2023/03/26 12:01:49;;;;;;;3.60;3.50;;;;;;;7.63;100.00;99566.63;6120606;23;20032;-72
2023/03/26 12:04:26;;;;;;;3.80;3.70;;;;;;;7.47;100.00;99556.25;6151720;23;20113;-72